Time;durP1;ratioP1;P1;durP2;ratioP2;P2;SDS_P1;SDS_P2;PMS_P1;PMS_P2;Temp;Humidity;BMP_temperature;BMP_pressure;BME280_temperature;BME280_humidity;BME280_pressure;Samples;Min_cycle;Max_cycle;Signal;HPM_P1;HPM_P2
2022/03/19 00:02:13;0.00;0.00;0.62;0.00;0.00;0.62;1.73;0.80;;;25.60;22.60;;;;;;2231628;62;20451;-50
2022/03/19 00:04:57;0.00;0.00;0.62;0.00;0.00;0.62;1.63;0.90;;;25.50;22.50;;;;;;2232116;62;20383;-54
2022/03/19 00:07:42;0.00;0.00;0.62;0.00;0.00;0.62;1.30;0.80;;;25.50;22.50;;;;;;2231817;62;20483;-53
2022/03/19 00:10:26;0.00;0.00;0.62;0.00;0.00;0.62;1.77;0.90;;;25.50;22.50;;;;;;2231318;62;20443;-50
2022/03/19 00:13:12;0.00;0.00;0.62;0.00;0.00;0.62;1.50;0.80;;;25.50;22.50;;;;;;2231610;62;20399;-50
2022/03/19 00:15:56;0.00;0.00;0.62;0.00;0.00;0.62;2.13;0.83;;;25.50;22.50;;;;;;2232066;62;20374;-51
2022/03/19 00:18:42;0.00;0.00;0.62;0.00;0.00;0.62;2.10;0.77;;;25.50;22.50;;;;;;2231347;62;20363;-49
2022/03/19 00:21:27;0.00;0.00;0.62;0.00;0.00;0.62;1.90;0.97;;;25.50;22.50;;;;;;2231827;62;20395;-54
2022/03/19 00:24:12;0.00;0.00;0.62;0.00;0.00;0.62;1.67;1.10;;;25.50;22.50;;;;;;2231529;62;20359;-53
2022/03/19 00:26:56;0.00;0.00;0.62;0.00;0.00;0.62;1.60;1.00;;;25.50;22.50;;;;;;2231758;62;21021;-51
2022/03/19 00:29:41;0.00;0.00;0.62;0.00;0.00;0.62;1.70;1.20;;;25.50;22.40;;;;;;2231361;62;20948;-55
2022/03/19 00:32:25;0.00;0.00;0.62;0.00;0.00;0.62;1.80;1.00;;;25.50;22.20;;;;;;2231231;62;20474;-52
2022/03/19 00:35:12;0.00;0.00;0.62;0.00;0.00;0.62;2.27;1.00;;;25.50;22.10;;;;;;2231141;62;20366;-58
2022/03/19 00:37:57;0.00;0.00;0.62;0.00;0.00;0.62;1.50;0.80;;;25.50;22.10;;;;;;2231566;62;20399;-53
2022/03/19 00:40:41;0.00;0.00;0.62;0.00;0.00;0.62;1.23;0.80;;;25.50;22.20;;;;;;2231294;62;20681;-56
2022/03/19 00:43:26;0.00;0.00;0.62;0.00;0.00;0.62;1.60;0.90;;;25.50;22.30;;;;;;2231434;62;20493;-54
2022/03/19 00:46:11;0.00;0.00;0.62;0.00;0.00;0.62;1.70;1.23;;;25.40;22.30;;;;;;2230822;62;20538;-58
2022/03/19 00:48:57;0.00;0.00;0.62;0.00;0.00;0.62;1.47;0.83;;;25.50;22.40;;;;;;2231551;62;20899;-53
2022/03/19 00:51:43;0.00;0.00;0.62;0.00;0.00;0.62;1.63;0.90;;;25.40;22.50;;;;;;2231347;62;20410;-51
2022/03/19 00:54:28;0.00;0.00;0.62;0.00;0.00;0.62;1.60;0.87;;;25.40;22.50;;;;;;2230857;62;20458;-54
2022/03/19 00:57:13;0.00;0.00;0.62;0.00;0.00;0.62;1.63;1.00;;;25.40;22.50;;;;;;2231666;62;20367;-51
2022/03/19 00:59:59;0.00;0.00;0.62;0.00;0.00;0.62;2.47;1.10;;;25.40;22.50;;;;;;2231102;62;20780;-57
2022/03/19 01:02:45;0.00;0.00;0.62;0.00;0.00;0.62;1.67;0.93;;;25.40;22.50;;;;;;2231200;62;20375;-54
2022/03/19 01:05:30;0.00;0.00;0.62;0.00;0.00;0.62;1.40;0.90;;;25.40;22.50;;;;;;2231703;62;20482;-60
2022/03/19 01:08:16;0.00;0.00;0.62;0.00;0.00;0.62;1.70;1.03;;;25.40;22.50;;;;;;2231382;62;20367;-50
2022/03/19 01:11:00;0.00;0.00;0.62;0.00;0.00;0.62;1.30;0.80;;;25.40;22.50;;;;;;2231408;62;20480;-49
2022/03/19 01:13:45;0.00;0.00;0.62;0.00;0.00;0.62;1.70;1.30;;;25.40;22.50;;;;;;2231340;62;20459;-48
2022/03/19 01:16:30;0.00;0.00;0.62;0.00;0.00;0.62;1.63;0.90;;;25.40;22.50;;;;;;2231259;62;20978;-51
2022/03/19 01:19:52;0.00;0.00;0.62;0.00;0.00;0.62;1.63;0.90;;;25.40;22.50;;;;;;2232161;62;20427;-50
2022/03/19 01:22:21;0.00;0.00;0.62;0.00;0.00;0.62;1.47;0.80;;;25.40;22.50;;;;;;2231851;62;20398;-49
2022/03/19 01:25:10;0.00;0.00;0.62;0.00;0.00;0.62;1.80;1.00;;;25.40;22.50;;;;;;2232580;62;20370;-48
2022/03/19 01:27:55;0.00;0.00;0.62;0.00;0.00;0.62;1.83;0.93;;;25.40;22.50;;;;;;2232900;62;20428;-57
2022/03/19 01:30:41;0.00;0.00;0.62;0.00;0.00;0.62;2.50;0.80;;;25.40;22.50;;;;;;2232513;62;20455;-55
2022/03/19 01:33:27;0.00;0.00;0.62;0.00;0.00;0.62;2.50;1.10;;;25.40;22.50;;;;;;2232828;62;20776;-57
2022/03/19 01:36:11;0.00;0.00;0.62;0.00;0.00;0.62;1.83;1.13;;;25.40;22.50;;;;;;2232357;62;20452;-57
2022/03/19 01:38:56;0.00;0.00;0.62;0.00;0.00;0.62;2.30;1.20;;;25.40;22.50;;;;;;2232316;62;20434;-56
2022/03/19 01:41:42;0.00;0.00;0.62;0.00;0.00;0.62;1.50;1.00;;;25.40;22.50;;;;;;2232651;62;20436;-54
2022/03/19 01:44:27;0.00;0.00;0.62;0.00;0.00;0.62;2.13;1.43;;;25.40;22.50;;;;;;2232703;62;20375;-58
2022/03/19 01:47:11;0.00;0.00;0.62;0.00;0.00;0.62;2.50;1.40;;;25.30;22.40;;;;;;2232704;62;20475;-57
2022/03/19 01:49:57;0.00;0.00;0.62;0.00;0.00;0.62;2.50;1.40;;;25.30;22.20;;;;;;2232448;62;20448;-54
2022/03/19 01:52:42;0.00;0.00;0.62;0.00;0.00;0.62;3.27;1.40;;;25.30;22.10;;;;;;2232598;62;20378;-50
2022/03/19 01:55:28;0.00;0.00;0.62;0.00;0.00;0.62;2.23;1.23;;;25.30;22.00;;;;;;2232604;62;20371;-56
2022/03/19 01:58:14;0.00;0.00;0.62;0.00;0.00;0.62;2.43;1.57;;;25.30;21.90;;;;;;2232707;62;20927;-59
2022/03/19 02:00:58;0.00;0.00;0.62;0.00;0.00;0.62;3.20;1.40;;;25.20;21.80;;;;;;2232118;62;20442;-57
2022/03/19 02:03:43;0.00;0.00;0.62;0.00;0.00;0.62;4.37;1.60;;;25.20;21.80;;;;;;2232984;62;20842;-56
2022/03/19 02:06:30;0.00;0.00;0.62;0.00;0.00;0.62;2.43;1.57;;;25.20;21.70;;;;;;2232688;62;20367;-52
2022/03/19 02:09:15;0.00;0.00;0.62;0.00;0.00;0.62;2.70;1.70;;;25.20;21.70;;;;;;2232368;62;20431;-55
2022/03/19 02:12:00;0.00;0.00;0.62;0.00;0.00;0.62;3.50;2.07;;;25.10;21.70;;;;;;2232738;62;20387;-54
2022/03/19 02:14:47;0.00;0.00;0.62;0.00;0.00;0.62;3.40;1.90;;;25.10;21.60;;;;;;2232490;62;20477;-52
2022/03/19 02:17:32;0.00;0.00;0.62;0.00;0.00;0.62;3.10;1.70;;;25.10;21.60;;;;;;2232720;62;20395;-55
2022/03/19 02:20:18;0.00;0.00;0.62;0.00;0.00;0.62;3.23;1.80;;;25.10;21.50;;;;;;2232515;62;20890;-53
2022/03/19 02:26:07;0.00;0.00;0.62;0.00;0.00;0.62;2.50;1.83;;;25.00;21.50;;;;;;2232893;62;20919;-51
2022/03/19 02:28:52;0.00;0.00;0.62;0.00;0.00;0.62;3.53;1.73;;;25.00;21.50;;;;;;2232563;62;20452;-51
2022/03/19 02:31:40;0.00;0.00;0.62;0.00;0.00;0.62;4.00;2.10;;;25.00;21.50;;;;;;2232200;62;20399;-53
2022/03/19 02:34:24;0.00;0.00;0.62;0.00;0.00;0.62;4.30;1.73;;;24.90;21.40;;;;;;2232316;62;20904;-53
2022/03/19 02:37:09;0.00;0.00;0.62;0.00;0.00;0.62;4.10;1.80;;;24.90;21.40;;;;;;2231765;62;20371;-57
2022/03/19 02:39:55;0.00;0.00;0.62;0.00;0.00;0.62;4.37;2.37;;;24.90;21.40;;;;;;2231774;62;20424;-57
2022/03/19 02:42:40;0.00;0.00;0.62;0.00;0.00;0.62;3.07;1.70;;;24.80;21.30;;;;;;2231878;62;20811;-55
2022/03/19 02:45:25;0.00;0.00;0.62;0.00;0.00;0.62;2.80;1.83;;;24.80;21.30;;;;;;2231494;62;20896;-53
2022/03/19 02:48:11;0.00;0.00;0.62;0.00;0.00;0.62;3.73;1.80;;;24.70;21.30;;;;;;2231915;62;20761;-52
2022/03/19 02:50:56;0.00;0.00;0.62;0.00;0.00;0.62;4.07;1.97;;;24.70;21.30;;;;;;2231700;62;20447;-52
2022/03/19 02:53:40;0.00;0.00;0.62;0.00;0.00;0.62;3.30;2.20;;;24.70;21.30;;;;;;2231639;62;20371;-53
2022/03/19 02:56:26;0.00;0.00;0.62;0.00;0.00;0.62;3.43;1.90;;;24.70;21.30;;;;;;2232240;62;20415;-52
2022/03/19 02:59:17;0.00;0.00;0.62;0.00;0.00;0.62;2.37;1.60;;;24.70;21.30;;;;;;2231971;62;20822;-52
2022/03/19 03:02:05;0.00;0.00;0.62;0.00;0.00;0.62;6.97;2.60;;;24.60;21.20;;;;;;2232157;62;20387;-54
2022/03/19 03:04:49;0.00;0.00;0.62;0.00;0.00;0.62;2.80;1.83;;;24.60;21.20;;;;;;2231830;62;20374;-55
2022/03/19 03:07:34;0.00;0.00;0.62;0.00;0.00;0.62;4.20;2.50;;;24.50;21.10;;;;;;2231460;62;20371;-49
2022/03/19 03:10:19;0.00;0.00;0.62;0.00;0.00;0.62;3.70;1.90;;;24.50;21.20;;;;;;2231982;62;20939;-51
2022/03/19 03:13:05;0.00;0.00;0.62;0.00;0.00;0.62;3.60;1.73;;;24.50;21.20;;;;;;2231789;62;20391;-53
2022/03/19 03:15:50;0.00;0.00;0.62;0.00;0.00;0.62;3.73;1.77;;;24.40;21.10;;;;;;2231690;62;20392;-51
2022/03/19 03:18:34;0.00;0.00;0.62;0.00;0.00;0.62;3.80;2.23;;;24.40;21.10;;;;;;2231910;62;20371;-52
2022/03/19 03:21:19;0.00;0.00;0.62;0.00;0.00;0.62;6.70;2.80;;;24.40;21.10;;;;;;2231884;62;20383;-51
2022/03/19 03:24:05;0.00;0.00;0.62;0.00;0.00;0.62;4.37;2.20;;;24.30;21.00;;;;;;2231740;62;20475;-54
2022/03/19 03:26:50;0.00;0.00;0.62;0.00;0.00;0.62;3.50;2.10;;;24.30;21.00;;;;;;2231764;62;20374;-51
2022/03/19 03:29:36;0.00;0.00;0.62;0.00;0.00;0.62;5.23;2.30;;;24.30;21.00;;;;;;2231604;62;20760;-58
2022/03/19 03:32:20;0.00;0.00;0.62;0.00;0.00;0.62;5.20;3.00;;;24.30;21.00;;;;;;2232088;62;20396;-58
2022/03/19 03:35:06;0.00;0.00;0.62;0.00;0.00;0.62;3.63;1.90;;;24.20;21.00;;;;;;2231869;62;20363;-57
2022/03/19 03:37:51;0.00;0.00;0.62;0.00;0.00;0.62;2.80;2.00;;;24.20;21.00;;;;;;2231741;62;20900;-58
2022/03/19 03:40:35;0.00;0.00;0.62;0.00;0.00;0.62;3.50;2.63;;;24.20;21.00;;;;;;2231434;62;20379;-58
2022/03/19 03:43:20;0.00;0.00;0.62;0.00;0.00;0.62;6.27;2.83;;;24.10;20.90;;;;;;2231843;62;20372;-59
2022/03/19 03:46:05;0.00;0.00;0.62;0.00;0.00;0.62;4.00;2.00;;;24.10;20.90;;;;;;2231495;62;20367;-58
2022/03/19 03:48:50;0.00;0.00;0.62;0.00;0.00;0.62;3.50;1.93;;;24.10;21.00;;;;;;2231587;62;20439;-56
2022/03/19 03:51:35;0.00;0.00;0.62;0.00;0.00;0.62;3.47;2.00;;;24.10;21.00;;;;;;2230905;62;20820;-58
2022/03/19 03:54:20;0.00;0.00;0.62;0.00;0.00;0.62;2.83;1.70;;;24.00;20.90;;;;;;2231913;62;20370;-58
2022/03/19 03:57:04;0.00;0.00;0.62;0.00;0.00;0.62;4.13;2.23;;;24.00;20.90;;;;;;2231709;62;20379;-58
2022/03/19 03:59:50;0.00;0.00;0.62;0.00;0.00;0.62;5.03;2.50;;;24.00;21.00;;;;;;2231484;62;20463;-58
2022/03/19 04:02:36;0.00;0.00;0.62;0.00;0.00;0.62;4.40;2.10;;;23.90;20.90;;;;;;2231728;62;20395;-58
2022/03/19 04:05:21;0.00;0.00;0.62;0.00;0.00;0.62;4.00;2.17;;;23.90;20.90;;;;;;2231458;62;20376;-55
2022/03/19 04:08:06;0.00;0.00;0.62;0.00;0.00;0.62;4.57;2.00;;;23.90;20.90;;;;;;2231506;62;20367;-56
2022/03/19 04:10:50;0.00;0.00;0.62;0.00;0.00;0.62;4.77;2.30;;;23.80;20.90;;;;;;2231540;62;20399;-56
2022/03/19 04:13:35;0.00;0.00;0.62;0.00;0.00;0.62;3.90;2.30;;;23.80;20.90;;;;;;2231670;62;20410;-57
2022/03/19 04:16:20;0.00;0.00;0.62;0.00;0.00;0.62;3.10;2.10;;;23.80;20.90;;;;;;2231803;62;20488;-56
2022/03/19 04:19:09;0.00;0.00;0.62;0.00;0.00;0.62;3.67;2.33;;;23.80;21.00;;;;;;2231702;62;20375;-59
2022/03/19 04:21:54;0.00;0.00;0.62;0.00;0.00;0.62;5.77;2.43;;;23.70;20.90;;;;;;2228615;62;20400;-58
2022/03/19 04:24:38;0.00;0.00;0.62;0.00;0.00;0.62;3.30;2.30;;;23.70;20.90;;;;;;2227725;62;20372;-59
2022/03/19 04:27:23;0.00;0.00;0.62;0.00;0.00;0.62;3.60;2.40;;;23.70;21.00;;;;;;2227731;62;21135;-55
2022/03/19 04:30:12;0.00;0.00;0.62;0.00;0.00;0.62;3.27;1.77;;;23.70;21.00;;;;;;2227324;62;20409;-55
2022/03/19 04:32:59;0.00;0.00;0.62;0.00;0.00;0.62;4.77;2.07;;;23.60;20.90;;;;;;2227798;62;20854;-60
2022/03/19 04:38:49;0.00;0.00;0.62;0.00;0.00;0.62;2.93;1.93;;;23.60;21.00;;;;;;2227907;62;20471;-60
2022/03/19 04:41:35;0.00;0.00;0.62;0.00;0.00;0.62;3.83;2.10;;;23.50;20.90;;;;;;2227871;62;20456;-60
2022/03/19 04:44:20;0.00;0.00;0.62;0.00;0.00;0.62;3.30;1.93;;;23.50;21.00;;;;;;2227501;62;20368;-58
2022/03/19 04:47:05;0.00;0.00;0.62;0.00;0.00;0.62;4.43;2.10;;;23.50;21.00;;;;;;2227787;62;20413;-59
2022/03/19 04:49:50;0.00;0.00;0.62;0.00;0.00;0.62;4.93;1.90;;;23.50;21.00;;;;;;2227587;62;20424;-60
2022/03/19 04:52:36;0.00;0.00;0.62;0.00;0.00;0.62;4.60;1.93;;;23.50;21.00;;;;;;2227501;62;20985;-60
2022/03/19 04:55:22;0.00;0.00;0.62;0.00;0.00;0.62;6.43;2.50;;;23.40;21.00;;;;;;2227636;62;20916;-58
2022/03/19 04:58:07;0.00;0.00;0.62;0.00;0.00;0.62;3.37;2.10;;;23.40;21.00;;;;;;2227355;62;20793;-60
2022/03/19 05:00:52;0.00;0.00;0.62;0.00;0.00;0.62;3.73;2.07;;;23.40;21.10;;;;;;2227752;62;21084;-60
2022/03/19 05:03:37;0.00;0.00;0.62;0.00;0.00;0.62;2.97;2.00;;;23.30;21.00;;;;;;2227657;62;20461;-60
2022/03/19 05:06:21;0.00;0.00;0.62;0.00;0.00;0.62;2.70;1.90;;;23.30;21.00;;;;;;2227407;62;20922;-58
2022/03/19 05:12:27;0.00;0.00;0.62;0.00;0.00;0.62;3.23;2.00;;;23.30;21.10;;;;;;2227436;62;20432;-57
2022/03/19 05:15:15;0.00;0.00;0.62;0.00;0.00;0.62;4.50;2.40;;;23.20;21.30;;;;;;2227594;62;20432;-57
2022/03/19 05:17:59;0.00;0.00;0.62;0.00;0.00;0.62;3.50;2.30;;;23.20;21.00;;;;;;2227485;62;20464;-59
2022/03/19 05:20:44;0.00;0.00;0.62;0.00;0.00;0.62;4.53;2.00;;;23.20;21.00;;;;;;2226776;62;20476;-60
2022/03/19 05:23:29;0.00;0.00;0.62;0.00;0.00;0.62;4.00;2.13;;;23.20;21.00;;;;;;2227749;62;20376;-58
2022/03/19 05:26:15;0.00;0.00;0.62;0.00;0.00;0.62;6.70;2.67;;;23.10;20.90;;;;;;2227308;62;20388;-57
2022/03/19 05:29:00;0.00;0.00;0.62;0.00;0.00;0.62;3.30;2.10;;;23.10;20.90;;;;;;2229546;62;20376;-59
2022/03/19 05:31:44;0.00;0.00;0.62;0.00;0.00;0.62;4.70;2.47;;;23.10;20.90;;;;;;2227519;62;20456;-59
2022/03/19 05:34:29;0.00;0.00;0.62;0.00;0.00;0.62;5.23;2.70;;;23.10;20.90;;;;;;2227347;62;20455;-58
2022/03/19 05:37:15;0.00;0.00;0.62;0.00;0.00;0.62;3.80;2.20;;;23.00;20.90;;;;;;2227263;62;20356;-56
2022/03/19 05:40:03;0.00;0.00;0.62;0.00;0.00;0.62;5.00;2.87;;;23.00;20.90;;;;;;2227475;62;20372;-57
2022/03/19 05:42:50;0.00;0.00;0.62;0.00;0.00;0.62;5.53;2.47;;;23.00;20.90;;;;;;2227145;62;20384;-54
2022/03/19 05:45:34;0.00;0.00;0.62;0.00;0.00;0.62;5.93;2.07;;;22.90;20.80;;;;;;2227784;62;20527;-55
2022/03/19 05:48:19;0.00;0.00;0.62;0.00;0.00;0.62;2.67;1.97;;;22.90;20.80;;;;;;2227544;62;20375;-53
2022/03/19 05:51:05;0.00;0.00;0.62;0.00;0.00;0.62;3.57;2.47;;;22.90;20.80;;;;;;2227106;62;20396;-55
2022/03/19 05:53:49;0.00;0.00;0.62;0.00;0.00;0.62;5.03;2.77;;;22.90;20.80;;;;;;2227439;62;20461;-58
2022/03/19 05:56:34;0.00;0.00;0.62;0.00;0.00;0.62;3.43;2.40;;;22.90;20.80;;;;;;2227343;62;20371;-58
2022/03/19 05:59:20;0.00;0.00;0.62;0.00;0.00;0.62;3.00;1.87;;;22.90;20.80;;;;;;2227367;62;20424;-58
2022/03/19 06:02:06;0.00;0.00;0.62;0.00;0.00;0.62;3.80;2.70;;;22.80;20.70;;;;;;2227230;62;20803;-56
2022/03/19 06:04:50;0.00;0.00;0.62;0.00;0.00;0.62;4.47;2.47;;;22.80;20.70;;;;;;2227264;62;20372;-56
2022/03/19 06:07:35;0.00;0.00;0.62;0.00;0.00;0.62;3.93;2.07;;;22.80;20.70;;;;;;2227798;62;20850;-56
2022/03/19 06:10:20;0.00;0.00;0.62;0.00;0.00;0.62;3.23;1.90;;;22.70;20.70;;;;;;2229742;62;20396;-56
2022/03/19 06:13:05;0.00;0.00;0.62;0.00;0.00;0.62;3.07;2.40;;;22.70;20.70;;;;;;2227980;62;20372;-58
2022/03/19 06:15:51;0.00;0.00;0.62;0.00;0.00;0.62;5.00;2.43;;;22.70;20.70;;;;;;2228310;62;20403;-58
2022/03/19 06:18:36;0.00;0.00;0.62;0.00;0.00;0.62;4.30;2.43;;;22.70;20.70;;;;;;2228076;62;20533;-58
2022/03/19 06:21:25;0.00;0.00;0.62;0.00;0.00;0.62;3.60;2.57;;;22.60;20.60;;;;;;2227825;62;20449;-60
2022/03/19 06:24:10;0.00;0.00;0.62;0.00;0.00;0.62;5.00;2.43;;;22.60;20.60;;;;;;2228013;62;20408;-59
2022/03/19 06:26:54;0.00;0.00;0.62;0.00;0.00;0.62;5.03;2.77;;;22.60;20.60;;;;;;2227863;62;20372;-56
2022/03/19 06:29:39;0.00;0.00;0.62;0.00;0.00;0.62;2.93;2.20;;;22.60;20.60;;;;;;2227992;62;20368;-55
2022/03/19 06:32:25;0.00;0.00;0.62;0.00;0.00;0.62;3.63;2.53;;;22.50;20.50;;;;;;2228239;62;20432;-55
2022/03/19 06:35:10;0.00;0.00;0.62;0.00;0.00;0.62;4.37;2.07;;;22.50;20.50;;;;;;2227601;62;20463;-52
2022/03/19 06:37:54;0.00;0.00;0.62;0.00;0.00;0.62;3.70;2.33;;;22.50;20.50;;;;;;2228110;62;20425;-54
2022/03/19 06:40:39;0.00;0.00;0.62;0.00;0.00;0.62;3.97;2.53;;;22.50;20.50;;;;;;2227760;62;20392;-53
2022/03/19 06:43:24;0.00;0.00;0.62;0.00;0.00;0.62;5.53;3.40;;;22.50;20.50;;;;;;2227873;62;20779;-51
2022/03/19 06:46:09;0.00;0.00;0.62;0.00;0.00;0.62;4.30;2.67;;;22.40;20.40;;;;;;2228077;62;20371;-54
2022/03/19 06:48:55;0.00;0.00;0.62;0.00;0.00;0.62;3.97;2.50;;;22.40;20.40;;;;;;2227885;62;20388;-58
2022/03/19 06:51:40;0.00;0.00;0.62;0.00;0.00;0.62;5.10;3.17;;;22.40;20.40;;;;;;2227934;62;20859;-59
2022/03/19 06:54:25;0.00;0.00;0.62;0.00;0.00;0.62;7.50;2.97;;;22.40;20.40;;;;;;2228260;62;20375;-59
2022/03/19 06:57:10;0.00;0.00;0.62;0.00;0.00;0.62;5.53;2.50;;;22.40;20.50;;;;;;2227376;62;20410;-58
2022/03/19 06:59:54;0.00;0.00;0.62;0.00;0.00;0.62;4.73;2.67;;;22.30;20.50;;;;;;2228154;62;20461;-54
2022/03/19 07:02:46;0.00;0.00;0.62;0.00;0.00;0.62;4.90;2.87;;;22.30;20.60;;;;;;2230097;62;20348;-54
2022/03/19 07:05:32;0.00;0.00;0.62;0.00;0.00;0.62;4.80;2.93;;;22.30;20.60;;;;;;2227805;62;20417;-51
2022/03/19 07:08:17;0.00;0.00;0.62;0.00;0.00;0.62;6.87;3.50;;;22.30;20.60;;;;;;2228390;62;20432;-50
2022/03/19 07:11:02;0.00;0.00;0.62;0.00;0.00;0.62;4.30;3.67;;;22.30;20.70;;;;;;2227879;62;20410;-54
2022/03/19 07:13:46;0.00;0.00;0.62;0.00;0.00;0.62;3.60;2.83;;;22.30;20.70;;;;;;2228084;62;20387;-57
2022/03/19 07:16:31;0.00;0.00;0.62;0.00;0.00;0.62;4.87;3.00;;;22.30;20.70;;;;;;2228068;62;20421;-56
2022/03/19 07:19:15;0.00;0.00;0.62;0.00;0.00;0.62;4.00;2.83;;;22.30;20.70;;;;;;2227111;62;20902;-53
2022/03/19 07:22:01;0.00;0.00;0.62;0.00;0.00;0.62;4.40;2.73;;;22.30;20.80;;;;;;2228438;62;20447;-53
2022/03/19 07:24:46;0.00;0.00;0.62;0.00;0.00;0.62;4.73;3.30;;;22.20;21.30;;;;;;2227773;62;20380;-53
2022/03/19 07:27:30;0.00;0.00;0.62;0.00;0.00;0.62;3.30;2.63;;;22.20;20.80;;;;;;2227744;62;20422;-54
2022/03/19 07:30:15;0.00;0.00;0.62;0.00;0.00;0.62;5.70;3.73;;;22.20;20.80;;;;;;2227727;62;20485;-52
2022/03/19 07:33:00;0.00;0.00;0.62;0.00;0.00;0.62;5.43;3.10;;;22.20;20.90;;;;;;2227857;62;20778;-52
2022/03/19 07:35:44;0.00;0.00;0.62;0.00;0.00;0.62;5.80;3.93;;;22.20;20.90;;;;;;2227586;62;20432;-51
2022/03/19 07:38:33;0.00;0.00;0.62;0.00;0.00;0.62;6.23;4.03;;;22.20;20.90;;;;;;2227953;62;20376;-53
2022/03/19 07:44:21;0.00;0.00;0.62;0.00;0.00;0.62;5.13;3.77;;;22.20;21.00;;;;;;2228073;62;20376;-54
2022/03/19 07:47:06;0.00;0.00;0.62;0.00;0.00;0.62;5.27;4.10;;;22.10;21.00;;;;;;2229985;62;20432;-52
2022/03/19 07:49:50;0.00;0.00;0.62;0.00;0.00;0.62;4.80;3.43;;;22.10;21.00;;;;;;2227685;62;20874;-53
2022/03/19 07:52:35;0.00;0.00;0.62;0.00;0.00;0.62;5.37;3.40;;;22.10;20.90;;;;;;2227709;62;20928;-55
2022/03/19 07:55:21;0.00;0.00;0.62;0.00;0.00;0.62;13.33;5.17;;;22.10;20.90;;;;;;2227844;62;20955;-54
2022/03/19 07:58:06;0.00;0.00;0.62;0.00;0.00;0.62;5.93;3.87;;;22.10;20.90;;;;;;2227920;62;20376;-56
2022/03/19 08:00:51;0.00;0.00;0.62;0.00;0.00;0.62;6.63;4.30;;;22.10;20.90;;;;;;2227544;62;20644;-54
2022/03/19 08:03:36;0.00;0.00;0.62;0.00;0.00;0.62;6.40;3.83;;;22.10;20.90;;;;;;2227238;62;20513;-54
2022/03/19 08:06:20;0.00;0.00;0.62;0.00;0.00;0.62;4.93;4.23;;;22.10;20.90;;;;;;2228206;62;20409;-55
2022/03/19 08:09:07;0.00;0.00;0.62;0.00;0.00;0.62;7.30;4.73;;;22.10;20.90;;;;;;2227813;62;20416;-52
2022/03/19 08:11:53;0.00;0.00;0.62;0.00;0.00;0.62;6.47;4.50;;;22.10;20.90;;;;;;2227597;62;20461;-51
2022/03/19 08:14:38;0.00;0.00;0.62;0.00;0.00;0.62;4.57;3.63;;;22.10;21.00;;;;;;2227872;62;20380;-50
2022/03/19 08:17:22;0.00;0.00;0.62;0.00;0.00;0.62;6.97;4.73;;;22.10;21.10;;;;;;2227828;62;20380;-52
2022/03/19 08:20:08;0.00;0.00;0.62;0.00;0.00;0.62;5.73;4.13;;;22.10;21.10;;;;;;2227748;62;20376;-53
2022/03/19 08:22:53;0.00;0.00;0.62;0.00;0.00;0.62;4.50;3.30;;;22.10;21.20;;;;;;2227823;62;20511;-52
2022/03/19 08:25:38;0.00;0.00;0.62;0.00;0.00;0.62;4.97;3.53;;;22.10;21.20;;;;;;2227392;62;20421;-58
2022/03/19 08:28:24;0.00;0.00;0.62;0.00;0.00;0.62;4.80;3.50;;;22.10;21.20;;;;;;2228212;62;20379;-50
2022/03/19 08:31:09;0.00;0.00;0.62;0.00;0.00;0.62;6.37;4.10;;;22.10;21.30;;;;;;2227658;62;20941;-54
2022/03/19 08:33:55;0.00;0.00;0.62;0.00;0.00;0.62;5.20;3.17;;;22.10;21.30;;;;;;2227449;62;20371;-58
2022/03/19 08:36:40;0.00;0.00;0.62;0.00;0.00;0.62;4.23;3.20;;;22.10;21.30;;;;;;2227575;62;20372;-57
2022/03/19 08:42:28;0.00;0.00;0.62;0.00;0.00;0.62;3.97;3.23;;;22.20;21.40;;;;;;2227749;62;20388;-57
2022/03/19 08:45:14;0.00;0.00;0.62;0.00;0.00;0.62;3.50;2.83;;;22.20;21.40;;;;;;2227826;62;20449;-56
2022/03/19 08:47:58;0.00;0.00;0.62;0.00;0.00;0.62;6.03;3.13;;;22.20;21.40;;;;;;2227225;62;20845;-57
2022/03/19 08:50:43;0.00;0.00;0.62;0.00;0.00;0.62;4.33;2.90;;;22.20;21.40;;;;;;2227736;62;20449;-57
2022/03/19 08:53:27;0.00;0.00;0.62;0.00;0.00;0.62;3.10;2.80;;;22.20;21.40;;;;;;2227494;62;20370;-57
2022/03/19 08:56:12;0.00;0.00;0.62;0.00;0.00;0.62;3.80;2.90;;;22.20;21.40;;;;;;2227514;62;20400;-55
2022/03/19 08:58:57;0.00;0.00;0.62;0.00;0.00;0.62;3.30;2.40;;;22.20;21.40;;;;;;2229872;62;20364;-60
2022/03/19 09:01:45;0.00;0.00;0.62;0.00;0.00;0.62;3.97;2.90;;;22.30;21.50;;;;;;2227683;62;20396;-50
2022/03/19 09:04:31;0.00;0.00;0.62;0.00;0.00;0.62;4.13;2.87;;;22.30;21.50;;;;;;2227492;62;20894;-51
2022/03/19 09:07:17;0.00;0.00;0.62;0.00;0.00;0.62;5.43;3.17;;;22.30;21.50;;;;;;2227805;62;20388;-53
2022/03/19 09:10:02;0.00;0.00;0.62;0.00;0.00;0.62;4.17;2.80;;;22.30;21.50;;;;;;2227350;62;20372;-50
2022/03/19 09:12:47;0.00;0.00;0.62;0.00;0.00;0.62;2.80;2.33;;;22.30;21.40;;;;;;2228032;62;20364;-50
2022/03/19 09:15:32;0.00;0.00;0.62;0.00;0.00;0.62;2.50;2.10;;;22.30;21.40;;;;;;2227660;62;20452;-55
2022/03/19 09:18:20;0.00;0.00;0.62;0.00;0.00;0.62;5.40;2.77;;;22.30;21.40;;;;;;2227513;62;20872;-50
2022/03/19 09:21:05;0.00;0.00;0.62;0.00;0.00;0.62;2.97;1.90;;;22.40;21.50;;;;;;2227459;62;20482;-56
2022/03/19 09:23:51;0.00;0.00;0.62;0.00;0.00;0.62;2.67;2.37;;;22.40;21.50;;;;;;2227580;62;20778;-58
2022/03/19 09:26:36;0.00;0.00;0.62;0.00;0.00;0.62;3.50;2.53;;;22.40;21.50;;;;;;2227254;62;20420;-56
2022/03/19 09:29:21;0.00;0.00;0.62;0.00;0.00;0.62;4.83;2.80;;;22.40;21.50;;;;;;2227646;62;20379;-58
2022/03/19 09:32:06;0.00;0.00;0.62;0.00;0.00;0.62;3.20;2.10;;;22.40;21.50;;;;;;2227393;62;20547;-52
2022/03/19 09:34:53;0.00;0.00;0.62;0.00;0.00;0.62;4.10;2.20;;;22.50;21.60;;;;;;2227840;62;20448;-53
2022/03/19 09:37:38;0.00;0.00;0.62;0.00;0.00;0.62;2.10;1.90;;;22.50;21.60;;;;;;2230041;62;20397;-57
2022/03/19 09:40:23;0.00;0.00;0.62;0.00;0.00;0.62;3.73;2.07;;;22.50;21.50;;;;;;2227164;62;20742;-56
2022/03/19 09:43:08;0.00;0.00;0.62;0.00;0.00;0.62;3.03;1.93;;;22.60;21.60;;;;;;2227543;62;20478;-55
2022/03/19 09:45:53;0.00;0.00;0.62;0.00;0.00;0.62;2.30;1.90;;;22.60;21.60;;;;;;2228245;62;20511;-57
2022/03/19 09:48:38;0.00;0.00;0.62;0.00;0.00;0.62;3.00;1.80;;;22.60;21.70;;;;;;2228079;62;20411;-53
2022/03/19 09:51:27;0.00;0.00;0.62;0.00;0.00;0.62;3.00;2.10;;;22.60;21.60;;;;;;2228334;62;20485;-52
2022/03/19 09:54:12;0.00;0.00;0.62;0.00;0.00;0.62;3.07;2.00;;;22.70;21.70;;;;;;2228022;62;20387;-50
2022/03/19 09:56:57;0.00;0.00;0.62;0.00;0.00;0.62;2.37;1.63;;;22.70;21.70;;;;;;2228598;62;20428;-56
2022/03/19 09:59:42;0.00;0.00;0.62;0.00;0.00;0.62;3.73;1.57;;;22.70;21.70;;;;;;2227960;62;20376;-57
2022/03/19 10:02:26;0.00;0.00;0.62;0.00;0.00;0.62;4.13;1.80;;;22.70;21.70;;;;;;2228016;62;20391;-54
2022/03/19 10:11:19;0.00;0.00;0.62;0.00;0.00;0.62;3.10;1.97;;;22.80;21.70;;;;;;2228133;62;21034;-57
2022/03/19 10:14:08;0.00;0.00;0.62;0.00;0.00;0.62;2.67;1.73;;;22.90;21.80;;;;;;2228178;62;21012;-55
2022/03/19 10:16:57;0.00;0.00;0.62;0.00;0.00;0.62;2.70;1.67;;;22.90;21.80;;;;;;2227385;62;20844;-52
2022/03/19 10:19:51;0.00;0.00;0.62;0.00;0.00;0.62;2.23;1.40;;;22.90;21.80;;;;;;2228414;62;20912;-56
2022/03/19 10:22:40;0.00;0.00;0.62;0.00;0.00;0.62;3.07;1.93;;;22.90;21.80;;;;;;2227696;62;20412;-56
2022/03/19 10:25:26;0.00;0.00;0.62;0.00;0.00;0.62;3.10;2.07;;;22.90;21.80;;;;;;2228024;62;20460;-56
2022/03/19 10:28:11;0.00;0.00;0.62;0.00;0.00;0.62;2.70;1.77;;;23.00;21.90;;;;;;2230347;62;20401;-57
2022/03/19 10:30:55;0.00;0.00;0.62;0.00;0.00;0.62;2.60;1.70;;;23.00;21.90;;;;;;2227649;62;20916;-54
2022/03/19 10:33:40;0.00;0.00;0.62;0.00;0.00;0.62;2.07;1.23;;;23.00;21.90;;;;;;2228306;62;20517;-57
2022/03/19 10:36:31;0.00;0.00;0.62;0.00;0.00;0.62;2.70;1.73;;;23.00;21.90;;;;;;2228079;62;20373;-57
2022/03/19 10:39:20;0.00;0.00;0.62;0.00;0.00;0.62;3.40;1.57;;;23.10;22.00;;;;;;2227478;62;20456;-60
2022/03/19 10:42:15;0.00;0.00;0.62;0.00;0.00;0.62;2.00;1.30;;;23.10;21.90;;;;;;2228100;62;20948;-58
2022/03/19 10:45:00;0.00;0.00;0.62;0.00;0.00;0.62;2.53;1.30;;;23.20;22.00;;;;;;2228049;62;20376;-59
2022/03/19 10:47:47;0.00;0.00;0.62;0.00;0.00;0.62;1.70;1.30;;;23.20;22.00;;;;;;2228064;62;20478;-51
2022/03/19 10:50:32;0.00;0.00;0.62;0.00;0.00;0.62;2.37;1.40;;;23.20;22.00;;;;;;2227771;62;20364;-54
2022/03/19 10:53:18;0.00;0.00;0.62;0.00;0.00;0.62;1.93;1.27;;;23.30;22.00;;;;;;2227909;62;20379;-55
2022/03/19 10:56:06;0.00;0.00;0.62;0.00;0.00;0.62;2.47;1.67;;;23.30;22.60;;;;;;2227983;62;20805;-52
2022/03/19 10:58:52;0.00;0.00;0.62;0.00;0.00;0.62;1.77;1.40;;;23.30;22.00;;;;;;2228243;62;20368;-52
2022/03/19 11:01:38;0.00;0.00;0.62;0.00;0.00;0.62;1.90;1.07;;;23.40;22.10;;;;;;2227699;62;20448;-50
2022/03/19 11:04:26;0.00;0.00;0.62;0.00;0.00;0.62;2.83;1.53;;;23.40;22.00;;;;;;2228135;62;20367;-52
2022/03/19 11:07:12;0.00;0.00;0.62;0.00;0.00;0.62;3.30;1.60;;;23.40;22.00;;;;;;2230445;62;20416;-51
2022/03/19 11:09:59;0.00;0.00;0.62;0.00;0.00;0.62;1.97;1.40;;;23.50;22.00;;;;;;2227749;62;20503;-53
2022/03/19 11:12:50;0.00;0.00;0.62;0.00;0.00;0.62;2.53;1.53;;;23.50;22.00;;;;;;2228264;62;20452;-52
2022/03/19 11:15:37;0.00;0.00;0.62;0.00;0.00;0.62;2.27;1.33;;;23.50;22.00;;;;;;2228007;62;20372;-53